createdAt,value
2023-02-28T00:01:32.222Z,-3.67
2023-02-28T00:03:59.550Z,-3.31
2023-02-28T00:06:26.281Z,-3.32
2023-02-28T00:08:53.184Z,-3.44
2023-02-28T00:11:20.025Z,-2.90
2023-02-28T00:13:49.325Z,-3.06
2023-02-28T00:16:30.567Z,-2.71
2023-02-28T00:18:57.237Z,-3.05
2023-02-28T00:21:24.284Z,-3.09
2023-02-28T00:23:51.029Z,-3.25
2023-02-28T00:26:18.694Z,-3.18
2023-02-28T00:28:46.874Z,-3.82
2023-02-28T00:31:13.715Z,-3.63
2023-02-28T00:33:40.409Z,-3.56
2023-02-28T00:36:09.659Z,-3.38
2023-02-28T00:38:37.007Z,-3.35
2023-02-28T00:41:05.758Z,-3.47
2023-02-28T00:43:35.047Z,-3.39
2023-02-28T00:46:02.667Z,-3.48
2023-02-28T00:48:30.964Z,-3.54
2023-02-28T00:50:58.136Z,-3.72
2023-02-28T00:53:25.519Z,-3.96
2023-02-28T00:55:52.338Z,-3.98
2023-02-28T00:58:19.314Z,-4.24
2023-02-28T01:00:49.856Z,-3.98
2023-02-28T01:03:21.688Z,-4.11
2023-02-28T01:05:48.448Z,-4.49
2023-02-28T01:08:17.297Z,-4.51
2023-02-28T01:10:44.160Z,-4.55
2023-02-28T01:13:11.935Z,-4.52
2023-02-28T01:15:42.775Z,-4.74
2023-02-28T01:18:09.508Z,-4.91
2023-02-28T01:20:38.356Z,-4.67
2023-02-28T01:23:05.012Z,-4.17
2023-02-28T01:25:32.044Z,-5.09
2023-02-28T01:27:58.720Z,-4.28
2023-02-28T01:30:27.325Z,-4.48
2023-02-28T01:32:54.549Z,-4.10
2023-02-28T01:35:21.521Z,-4.58
2023-02-28T01:37:48.312Z,-4.97
2023-02-28T01:40:15.552Z,-4.04
2023-02-28T01:42:42.400Z,-4.20
2023-02-28T01:45:24.515Z,-4.36
2023-02-28T01:47:53.881Z,-4.86
2023-02-28T01:50:25.750Z,-4.82
2023-02-28T01:52:55.889Z,-4.88
2023-02-28T01:55:29.472Z,-4.52
2023-02-28T01:58:03.045Z,-5.39
2023-02-28T02:00:31.439Z,-5.07
2023-02-28T02:03:07.718Z,-5.15
2023-02-28T02:05:39.307Z,-4.70
2023-02-28T02:08:14.221Z,-4.71
2023-02-28T02:10:52.166Z,-5.04
2023-02-28T02:13:46.972Z,-4.82
2023-02-28T02:16:16.496Z,-4.77
2023-02-28T02:18:59.033Z,-4.70
2023-02-28T02:21:55.972Z,-4.64
2023-02-28T02:24:43.674Z,-4.96
2023-02-28T02:27:22.159Z,-4.76
2023-02-28T02:30:27.597Z,-4.59
2023-02-28T02:33:11.230Z,-4.44
2023-02-28T02:35:48.810Z,-4.32
2023-02-28T02:38:43.434Z,-4.38
2023-02-28T02:41:33.035Z,-5.04
2023-02-28T02:44:13.080Z,-5.10
2023-02-28T02:46:44.967Z,-4.78
2023-02-28T02:49:27.152Z,-6.39
2023-02-28T02:51:57.983Z,-5.04
2023-02-28T02:54:36.368Z,-4.89
2023-02-28T02:57:10.102Z,-5.49
2023-02-28T02:59:40.419Z,-5.24
2023-02-28T03:02:09.756Z,-5.15
2023-02-28T03:04:44.477Z,-5.31
2023-02-28T03:07:11.234Z,-6.05
2023-02-28T03:09:38.497Z,-5.37
2023-02-28T03:12:12.929Z,-5.90
2023-02-28T03:15:06.792Z,-5.20
2023-02-28T03:18:07.370Z,-7.16
2023-02-28T03:20:47.912Z,-5.55
2023-02-28T03:23:19.493Z,-5.59
2023-02-28T03:25:46.859Z,-5.60
2023-02-28T03:28:23.702Z,-7.26
2023-02-28T03:31:05.582Z,-5.57
2023-02-28T03:33:43.205Z,-5.81
2023-02-28T03:36:20.692Z,-5.92
2023-02-28T03:38:56.578Z,-6.23
2023-02-28T03:41:29.014Z,-5.88
2023-02-28T03:44:17.072Z,-5.69
2023-02-28T03:46:50.939Z,-5.72
2023-02-28T03:49:30.210Z,-5.79
2023-02-28T03:51:59.436Z,-6.68
2023-02-28T03:54:38.784Z,-6.45
2023-02-28T03:57:33.324Z,-5.86
2023-02-28T04:00:07.862Z,-5.81
2023-02-28T04:02:40.593Z,-5.94
2023-02-28T04:05:08.601Z,-6.40
2023-02-28T04:07:35.482Z,-6.62
2023-02-28T04:10:02.363Z,-6.15
2023-02-28T04:12:29.211Z,-6.02
2023-02-28T04:14:55.974Z,-6.31
2023-02-28T04:17:22.794Z,-6.14
2023-02-28T04:19:50.835Z,-7.07
2023-02-28T04:22:18.796Z,-6.42
2023-02-28T04:24:46.026Z,-6.77
2023-02-28T04:27:12.950Z,-6.88
2023-02-28T04:29:39.734Z,-7.49
2023-02-28T04:32:06.669Z,-7.23
2023-02-28T04:34:33.977Z,-6.45
2023-02-28T04:37:17.047Z,-6.91
2023-02-28T04:39:44.734Z,-6.35
2023-02-28T04:42:13.148Z,-6.35
2023-02-28T04:44:40.211Z,-6.65
2023-02-28T04:47:07.136Z,-6.25
2023-02-28T04:49:33.991Z,-6.49
2023-02-28T04:52:00.746Z,-6.14
2023-02-28T04:54:27.897Z,-6.54
2023-02-28T04:56:55.733Z,-6.31
2023-02-28T04:59:22.479Z,-6.26
2023-02-28T05:01:50.822Z,-6.41
2023-02-28T05:04:18.086Z,-6.27
2023-02-28T05:06:45.016Z,-6.95
2023-02-28T05:09:14.813Z,-7.04
2023-02-28T05:11:42.222Z,-6.39
2023-02-28T05:14:14.328Z,-6.59
2023-02-28T05:16:41.315Z,-6.74
2023-02-28T05:19:08.183Z,-6.62
2023-02-28T05:21:37.900Z,-6.06
2023-02-28T05:24:11.694Z,-6.17
2023-02-28T05:26:40.908Z,-6.08
2023-02-28T05:29:07.802Z,-6.23
2023-02-28T05:31:35.591Z,-5.93
2023-02-28T05:34:02.625Z,-6.13
2023-02-28T05:36:29.381Z,-5.94
2023-02-28T05:38:56.114Z,-5.88
2023-02-28T05:41:23.077Z,-6.61
2023-02-28T05:43:50.117Z,-6.47
2023-02-28T05:46:17.702Z,-5.72
2023-02-28T05:48:48.034Z,-5.74
2023-02-28T05:51:14.956Z,-5.83
2023-02-28T05:53:41.822Z,-5.81
2023-02-28T05:56:08.647Z,-5.71
2023-02-28T05:58:35.831Z,-6.96
2023-02-28T06:01:23.737Z,-7.13
2023-02-28T06:03:50.768Z,-5.73
2023-02-28T06:06:17.559Z,-6.16
2023-02-28T06:08:45.705Z,-6.00
2023-02-28T06:11:12.728Z,-5.56
2023-02-28T06:13:39.652Z,-6.02
2023-02-28T06:16:06.621Z,-5.43
2023-02-28T06:18:33.501Z,-5.56
2023-02-28T06:21:00.377Z,-5.99
2023-02-28T06:23:27.245Z,-5.32
2023-02-28T06:25:54.274Z,-5.49
2023-02-28T06:28:21.224Z,-5.23
2023-02-28T06:30:48.037Z,-5.57
2023-02-28T06:33:14.901Z,-5.33
2023-02-28T06:35:45.342Z,-5.17
2023-02-28T06:38:12.405Z,-5.03
2023-02-28T06:40:39.239Z,-4.72
2023-02-28T06:43:06.150Z,-5.56
2023-02-28T06:45:32.976Z,-4.58
2023-02-28T06:48:01.173Z,-4.78
2023-02-28T06:50:30.435Z,-4.49
2023-02-28T06:52:57.195Z,-4.46
2023-02-28T06:55:24.165Z,-4.88
2023-02-28T06:57:51.727Z,-4.71
2023-02-28T07:00:19.112Z,-4.98
2023-02-28T07:02:45.895Z,-4.65
2023-02-28T07:05:12.695Z,-4.50
2023-02-28T07:07:41.614Z,-4.71
2023-02-28T07:10:09.181Z,-4.54
2023-02-28T07:12:37.677Z,-4.00
2023-02-28T07:15:08.241Z,-4.68
2023-02-28T07:17:34.971Z,-3.88
2023-02-28T07:20:01.831Z,-4.43
2023-02-28T07:22:29.600Z,-3.95
2023-02-28T07:24:56.689Z,-3.83
2023-02-28T07:27:26.683Z,-4.07
2023-02-28T07:29:54.409Z,-3.97
2023-02-28T07:32:21.385Z,-3.84
2023-02-28T07:34:48.331Z,-3.39
2023-02-28T07:37:15.972Z,-4.10
2023-02-28T07:39:43.429Z,-3.37
2023-02-28T07:42:12.847Z,-2.97
2023-02-28T07:44:41.520Z,-2.79
2023-02-28T07:47:10.012Z,-3.53
2023-02-28T07:49:37.630Z,-2.77
2023-02-28T07:52:08.451Z,-2.62
2023-02-28T07:54:35.269Z,-2.78
2023-02-28T07:57:02.063Z,-2.75
2023-02-28T07:59:31.908Z,-2.46
2023-02-28T08:02:00.188Z,-2.73
2023-02-28T08:04:27.677Z,-2.13
2023-02-28T08:06:54.403Z,-2.23
2023-02-28T08:09:21.321Z,-2.95
2023-02-28T08:11:48.096Z,-2.46
2023-02-28T08:14:14.911Z,-2.35
2023-02-28T08:16:41.771Z,-2.26
2023-02-28T08:19:08.617Z,-2.59
2023-02-28T08:21:35.514Z,-1.74
2023-02-28T08:24:02.376Z,-1.81
2023-02-28T08:26:29.338Z,-1.75
2023-02-28T08:28:57.269Z,-2.69
2023-02-28T08:31:24.743Z,-1.49
2023-02-28T08:33:54.078Z,-1.71
2023-02-28T08:36:21.270Z,-1.13
2023-02-28T08:38:48.218Z,-0.96
2023-02-28T08:41:15.066Z,-1.61
2023-02-28T08:43:42.470Z,-0.98
2023-02-28T08:46:14.876Z,-0.89
2023-02-28T08:48:42.582Z,-1.11
2023-02-28T08:51:22.486Z,-1.20
2023-02-28T08:53:51.831Z,-0.52
2023-02-28T08:56:19.196Z,-0.76
2023-02-28T08:58:47.675Z,-0.59
2023-02-28T09:01:17.239Z,-0.16
2023-02-28T09:03:45.268Z,-0.45
2023-02-28T09:06:12.696Z,0.09
2023-02-28T09:08:40.543Z,0.49
2023-02-28T09:11:08.275Z,0.81
2023-02-28T09:13:35.608Z,0.06
2023-02-28T09:16:04.893Z,0.46
2023-02-28T09:18:32.065Z,0.46
2023-02-28T09:20:59.186Z,0.07
2023-02-28T09:23:26.175Z,0.11
2023-02-28T09:25:55.506Z,0.54
2023-02-28T09:28:23.088Z,0.76
2023-02-28T09:30:53.316Z,0.58
2023-02-28T09:33:22.015Z,1.13
2023-02-28T09:35:58.178Z,1.24
2023-02-28T09:38:25.167Z,1.41
2023-02-28T09:40:55.309Z,1.48
2023-02-28T09:43:25.360Z,1.77
2023-02-28T09:46:24.277Z,1.71
2023-02-28T09:48:51.676Z,2.13
2023-02-28T09:51:34.488Z,1.98
2023-02-28T09:54:02.206Z,2.56
2023-02-28T09:56:37.616Z,2.73
2023-02-28T09:59:10.961Z,3.05
2023-02-28T10:01:54.166Z,2.72
2023-02-28T10:04:45.502Z,3.40
2023-02-28T10:07:32.959Z,3.74
2023-02-28T10:10:03.542Z,3.75
2023-02-28T10:12:31.580Z,2.84
2023-02-28T10:15:00.793Z,3.18
2023-02-28T10:17:49.439Z,3.52
2023-02-28T10:20:30.875Z,3.76
2023-02-28T10:23:08.418Z,3.88
2023-02-28T10:25:37.270Z,3.74
2023-02-28T10:28:15.407Z,3.80
2023-02-28T10:30:46.304Z,4.08
2023-02-28T10:33:21.144Z,3.99
2023-02-28T10:35:47.988Z,3.50
2023-02-28T10:38:27.451Z,3.96
2023-02-28T10:41:16.123Z,3.58
2023-02-28T10:43:46.127Z,4.24
2023-02-28T10:46:26.988Z,4.50
2023-02-28T10:49:30.210Z,4.67
2023-02-28T10:52:00.498Z,4.59
2023-02-28T10:54:31.833Z,4.46
2023-02-28T10:57:22.676Z,4.80
2023-02-28T10:59:55.972Z,4.78
2023-02-28T11:02:37.415Z,5.06
2023-02-28T11:05:25.828Z,5.36
2023-02-28T11:08:00.312Z,4.91
2023-02-28T11:10:31.260Z,5.78
2023-02-28T11:13:00.535Z,4.85
2023-02-28T11:15:33.850Z,5.53
2023-02-28T11:18:13.980Z,5.38
2023-02-28T11:20:40.780Z,6.23
2023-02-28T11:23:14.940Z,5.54
2023-02-28T11:25:50.677Z,5.48
2023-02-28T11:28:35.758Z,6.31
2023-02-28T11:31:17.593Z,6.42
2023-02-28T11:33:52.174Z,6.33
2023-02-28T11:36:27.212Z,6.23
2023-02-28T11:38:56.030Z,5.94
2023-02-28T11:41:30.588Z,6.49
2023-02-28T11:44:35.697Z,6.59
2023-02-28T11:47:16.611Z,6.47
2023-02-28T11:50:01.515Z,6.57
2023-02-28T11:52:37.131Z,6.58
2023-02-28T11:55:32.137Z,6.65
2023-02-28T11:58:23.540Z,7.25
2023-02-28T12:01:23.034Z,7.20
2023-02-28T12:04:01.299Z,7.31
2023-02-28T12:06:53.036Z,6.89
2023-02-28T12:09:42.736Z,7.31
2023-02-28T12:12:35.512Z,7.57
2023-02-28T12:15:21.905Z,8.18
2023-02-28T12:18:14.071Z,7.74
2023-02-28T12:21:12.954Z,8.23
2023-02-28T12:24:05.236Z,7.66
2023-02-28T12:26:42.331Z,8.21
2023-02-28T12:29:25.068Z,8.10
2023-02-28T12:32:14.338Z,9.29
2023-02-28T12:34:50.351Z,8.20
2023-02-28T12:37:32.475Z,8.92
2023-02-28T12:40:09.030Z,7.73
2023-02-28T12:42:52.611Z,8.22
2023-02-28T12:45:25.912Z,8.18
2023-02-28T12:48:01.599Z,9.48
2023-02-28T12:50:31.046Z,9.94
2023-02-28T12:53:20.099Z,9.90
2023-02-28T12:56:04.522Z,8.12
2023-02-28T12:58:38.670Z,8.73
2023-02-28T13:01:33.835Z,8.78
2023-02-28T13:04:30.513Z,8.98
2023-02-28T13:07:18.253Z,9.47
2023-02-28T13:09:54.569Z,8.54
2023-02-28T13:12:23.738Z,7.62
2023-02-28T13:14:51.771Z,6.71
2023-02-28T13:17:23.360Z,7.50
2023-02-28T13:19:53.072Z,7.23
2023-02-28T13:22:41.099Z,7.16
2023-02-28T13:25:22.809Z,7.86
2023-02-28T13:27:57.979Z,7.76
2023-02-28T13:30:56.822Z,7.27
2023-02-28T13:33:33.899Z,6.45
2023-02-28T13:36:09.346Z,4.75
2023-02-28T13:38:44.445Z,5.00
2023-02-28T13:41:32.836Z,6.42
2023-02-28T13:44:04.425Z,5.94
2023-02-28T13:46:32.488Z,5.73
2023-02-28T13:49:21.219Z,5.20
2023-02-28T13:51:50.089Z,4.29
2023-02-28T13:54:36.709Z,4.63
2023-02-28T13:57:31.801Z,4.78
2023-02-28T14:00:07.573Z,5.52
2023-02-28T14:02:52.840Z,5.76
2023-02-28T14:05:27.163Z,5.74
2023-02-28T14:07:57.910Z,6.70
2023-02-28T14:10:29.586Z,7.32
2023-02-28T14:13:01.116Z,6.67
2023-02-28T14:15:50.515Z,6.97
2023-02-28T14:18:40.982Z,6.93
2023-02-28T14:21:13.888Z,7.94
2023-02-28T14:23:52.765Z,6.43
2023-02-28T14:26:27.944Z,5.60
2023-02-28T14:29:16.098Z,5.49
2023-02-28T14:32:19.974Z,5.51
2023-02-28T14:35:13.477Z,4.62
2023-02-28T14:37:43.509Z,4.60
2023-02-28T14:40:22.416Z,4.13
2023-02-28T14:42:57.325Z,4.26
2023-02-28T14:45:24.816Z,4.08
2023-02-28T14:47:52.808Z,3.59
2023-02-28T14:50:27.165Z,2.97
2023-02-28T14:52:57.223Z,2.80
2023-02-28T14:55:48.092Z,2.67
2023-02-28T14:58:32.964Z,2.42
2023-02-28T15:01:02.473Z,2.23
2023-02-28T15:03:32.049Z,2.34
2023-02-28T15:06:15.008Z,2.04
2023-02-28T15:08:41.905Z,1.94
2023-02-28T15:11:14.064Z,1.97
2023-02-28T15:13:47.251Z,1.32
2023-02-28T15:16:23.097Z,1.82
2023-02-28T15:19:00.672Z,1.41
2023-02-28T15:21:34.888Z,1.72
2023-02-28T15:24:25.210Z,1.72
2023-02-28T15:27:01.117Z,0.94
2023-02-28T15:29:30.595Z,1.16
2023-02-28T15:32:08.302Z,1.31
2023-02-28T15:34:43.850Z,1.25
2023-02-28T15:37:39.040Z,0.93
2023-02-28T15:40:41.472Z,1.07
2023-02-28T15:43:16.536Z,0.18
2023-02-28T15:45:52.394Z,1.01
2023-02-28T15:48:46.255Z,0.85
2023-02-28T15:51:12.882Z,0.93
2023-02-28T15:53:50.906Z,0.72
2023-02-28T15:56:30.475Z,0.32
2023-02-28T15:59:00.320Z,0.68
2023-02-28T16:01:33.419Z,0.61
2023-02-28T16:04:14.624Z,0.33
2023-02-28T16:07:01.304Z,-0.62
2023-02-28T16:09:28.446Z,0.68
2023-02-28T16:11:58.196Z,-0.14
2023-02-28T16:14:28.512Z,0.70
2023-02-28T16:16:57.075Z,0.72
2023-02-28T16:19:24.373Z,0.54
2023-02-28T16:21:51.254Z,0.78
2023-02-28T16:24:18.042Z,0.82
2023-02-28T16:26:49.191Z,0.25
2023-02-28T16:29:40.267Z,0.87
2023-02-28T16:32:07.540Z,0.46
2023-02-28T16:34:34.505Z,0.87
2023-02-28T16:37:01.366Z,0.69
2023-02-28T16:39:28.169Z,0.87
2023-02-28T16:41:55.001Z,0.83
2023-02-28T16:44:30.199Z,0.54
2023-02-28T16:46:57.402Z,0.92
2023-02-28T16:49:25.386Z,0.65
2023-02-28T16:51:52.361Z,0.25
2023-02-28T16:54:19.293Z,0.93
2023-02-28T16:56:49.056Z,0.96
2023-02-28T16:59:20.947Z,0.97
2023-02-28T17:01:48.180Z,0.76
2023-02-28T17:04:16.969Z,0.88
2023-02-28T17:06:44.905Z,0.59
2023-02-28T17:09:19.056Z,0.90
2023-02-28T17:11:46.732Z,0.96
2023-02-28T17:14:14.294Z,0.59
2023-02-28T17:16:42.862Z,0.98
2023-02-28T17:19:17.873Z,-0.01
2023-02-28T17:21:45.751Z,0.09
2023-02-28T17:24:16.447Z,-0.15
2023-02-28T17:26:46.816Z,0.99
2023-02-28T17:29:21.716Z,0.78
2023-02-28T17:32:03.088Z,0.99
2023-02-28T17:34:35.776Z,-0.05
2023-02-28T17:37:03.828Z,1.06
2023-02-28T17:39:32.314Z,0.36
2023-02-28T17:41:59.026Z,0.22
2023-02-28T17:44:26.072Z,0.95
2023-02-28T17:46:55.234Z,0.55
2023-02-28T17:49:22.724Z,1.23
2023-02-28T17:51:51.437Z,0.77
2023-02-28T17:54:19.246Z,1.23
2023-02-28T17:56:46.224Z,0.78
2023-02-28T17:59:13.825Z,1.23
2023-02-28T18:01:40.948Z,0.74
2023-02-28T18:04:07.911Z,1.23
2023-02-28T18:06:51.380Z,0.22
2023-02-28T18:09:24.210Z,1.19
2023-02-28T18:11:53.104Z,1.01
2023-02-28T18:14:23.992Z,1.16
2023-02-28T18:16:53.381Z,0.96
2023-02-28T18:19:21.381Z,0.57
2023-02-28T18:21:51.396Z,0.79
2023-02-28T18:24:21.342Z,1.03
2023-02-28T18:26:48.947Z,0.91
2023-02-28T18:29:25.079Z,0.86
2023-02-28T18:31:54.243Z,0.99
2023-02-28T18:34:22.261Z,1.06
2023-02-28T18:36:51.535Z,1.04
2023-02-28T18:39:19.527Z,-0.10
2023-02-28T18:41:47.388Z,0.50
2023-02-28T18:44:22.518Z,1.03
2023-02-28T18:46:51.110Z,0.66
2023-02-28T18:49:19.198Z,0.95
2023-02-28T18:51:47.642Z,1.13
2023-02-28T18:54:16.712Z,0.95
2023-02-28T18:56:44.548Z,1.15
2023-02-28T18:59:12.261Z,1.14
2023-02-28T19:01:40.216Z,1.07
2023-02-28T19:04:07.484Z,0.72
2023-02-28T19:06:34.541Z,0.75
2023-02-28T19:09:04.579Z,0.94
2023-02-28T19:11:36.550Z,0.92
2023-02-28T19:14:03.778Z,0.82
2023-02-28T19:16:31.250Z,0.33
2023-02-28T19:18:58.241Z,0.61
2023-02-28T19:21:26.342Z,0.61
2023-02-28T19:23:53.633Z,0.50
2023-02-28T19:26:25.107Z,0.71
2023-02-28T19:28:52.248Z,0.65
2023-02-28T19:31:23.161Z,0.77
2023-02-28T19:33:52.882Z,0.64
2023-02-28T19:36:20.966Z,0.76
2023-02-28T19:38:48.285Z,0.66
2023-02-28T19:41:16.578Z,0.62
2023-02-28T19:43:44.079Z,0.79
2023-02-28T19:46:12.250Z,0.72
2023-02-28T19:48:39.995Z,0.72
2023-02-28T19:51:10.379Z,0.73
2023-02-28T19:53:38.637Z,0.71
2023-02-28T19:56:06.570Z,-0.01
2023-02-28T19:58:34.252Z,0.65
2023-02-28T20:01:12.925Z,0.66
2023-02-28T20:03:40.500Z,0.67
2023-02-28T20:06:11.340Z,0.74
2023-02-28T20:08:38.570Z,0.15
2023-02-28T20:11:08.666Z,-0.10
2023-02-28T20:13:36.045Z,0.62
2023-02-28T20:16:09.490Z,0.78
2023-02-28T20:18:38.504Z,0.35
2023-02-28T20:21:07.732Z,0.54
2023-02-28T20:23:34.663Z,0.56
2023-02-28T20:26:01.551Z,0.99
2023-02-28T20:28:28.548Z,0.96
2023-02-28T20:30:55.899Z,0.84
2023-02-28T20:33:23.049Z,0.64
2023-02-28T20:35:52.649Z,-0.74
2023-02-28T20:38:20.244Z,0.94
2023-02-28T20:40:47.104Z,0.98
2023-02-28T20:43:13.948Z,1.00
2023-02-28T20:45:40.739Z,0.71
2023-02-28T20:48:07.673Z,1.10
2023-02-28T20:50:34.458Z,0.77
2023-02-28T20:53:01.252Z,1.12
2023-02-28T20:55:28.198Z,1.08
2023-02-28T20:57:55.071Z,1.07
2023-02-28T21:00:22.657Z,0.96
2023-02-28T21:02:49.591Z,1.11
2023-02-28T21:05:17.064Z,1.17
2023-02-28T21:07:43.841Z,1.21
2023-02-28T21:10:13.253Z,1.24
2023-02-28T21:12:40.190Z,0.79
2023-02-28T21:15:07.654Z,1.24
2023-02-28T21:17:34.475Z,1.23
2023-02-28T21:20:01.323Z,1.08
2023-02-28T21:22:28.122Z,1.21
2023-02-28T21:24:54.925Z,1.18
2023-02-28T21:27:21.713Z,1.19
2023-02-28T21:29:48.565Z,0.73
2023-02-28T21:32:15.467Z,1.27
2023-02-28T21:34:42.272Z,1.19
2023-02-28T21:37:10.468Z,1.08
2023-02-28T21:39:37.192Z,0.69
2023-02-28T21:42:04.449Z,0.66
2023-02-28T21:44:32.503Z,1.43
2023-02-28T21:47:02.324Z,1.23
2023-02-28T21:49:29.777Z,1.38
2023-02-28T21:51:58.116Z,1.40
2023-02-28T21:54:25.437Z,0.83
2023-02-28T21:56:52.345Z,1.36
2023-02-28T21:59:20.180Z,1.33
2023-02-28T22:01:50.954Z,1.10
2023-02-28T22:04:21.476Z,1.28
2023-02-28T22:06:57.102Z,0.99
2023-02-28T22:09:24.182Z,0.94
2023-02-28T22:11:51.152Z,0.08
2023-02-28T22:14:18.131Z,0.78
2023-02-28T22:16:51.744Z,1.22
2023-02-28T22:19:20.961Z,1.26
2023-02-28T22:21:47.981Z,0.70
2023-02-28T22:24:15.746Z,1.24
2023-02-28T22:26:43.387Z,0.75
2023-02-28T22:29:10.882Z,1.01
2023-02-28T22:31:38.000Z,1.26
2023-02-28T22:34:08.073Z,1.24
2023-02-28T22:36:35.615Z,1.28
2023-02-28T22:39:04.094Z,1.28
2023-02-28T22:41:31.335Z,1.12
2023-02-28T22:44:01.068Z,1.19
2023-02-28T22:46:30.528Z,1.19
2023-02-28T22:49:02.790Z,1.33
2023-02-28T22:51:31.203Z,1.20
2023-02-28T22:53:58.799Z,1.08
2023-02-28T22:56:29.282Z,0.98
2023-02-28T22:58:58.289Z,0.91
2023-02-28T23:01:27.781Z,-0.22
2023-02-28T23:03:54.911Z,0.68
2023-02-28T23:06:30.118Z,0.71
2023-02-28T23:09:00.017Z,0.25
2023-02-28T23:11:30.605Z,0.31
2023-02-28T23:14:00.900Z,0.58
2023-02-28T23:16:33.831Z,0.22
2023-02-28T23:19:02.998Z,0.63
2023-02-28T23:21:30.726Z,0.60
2023-02-28T23:23:57.639Z,0.13
2023-02-28T23:26:24.831Z,0.60
2023-02-28T23:28:51.628Z,0.54
2023-02-28T23:31:18.591Z,0.14
2023-02-28T23:33:45.438Z,0.26
2023-02-28T23:36:15.584Z,0.74
2023-02-28T23:38:47.778Z,0.60
2023-02-28T23:41:14.614Z,0.82
2023-02-28T23:43:41.397Z,0.38
2023-02-28T23:46:10.155Z,0.20
2023-02-28T23:48:38.258Z,0.51
2023-02-28T23:51:08.525Z,0.99
2023-02-28T23:53:40.749Z,-0.49
2023-02-28T23:56:09.737Z,0.79
2023-02-28T23:58:37.046Z,0.58
